LEAMLEXJ

Guest
Details From LEAM - Almeria
To LEXJ - Santander
Flight Number -
Tags generated
Created
Modified
Stats Distance 408 nm / 755 km
Max Altitude 34,000 ft / 10,363 m
Waypoints 9
Social Downloads 0
Likes 0
Share VATSIM

Download

Looking for another format? Having issues loading an existing format? Contact us
Advertisement - Login to hide

Notes

Basic altitude profile: - Ascent Rate: 2500ft/min - Ascent Speed: 250kts - Cruise Altitude: 35000ft - Cruise Speed: 420kts - Descent Rate: 1500ft/min - Descent Speed: 250kts Options: - Use NATs: yes - Use PACOTS: yes - Use low airways: yes - Use high airways: yes

Route

LEAM YES UM143 CJN UN10 BAN GASMO LEXJ

ID Type Via Altitude Latitude Longitude Leg Dist Tot Dist Heading (true) Name
O LEAM APT - 0 ft / 0 m 36.84393˚ -2.37010˚ - 0 nm - Almeria
YES VOR - 31,500 ft / 9,601 m 38.36078˚ -2.35275˚ 91 nm 91 nm 1° / 1° YESTE VOR-DME
ANANA FIX UM143 (AWY-HI) 34,000 ft / 10,363 m 39.00000˚ -2.41287˚ 38 nm 129 nm 356° / 356° -
TEMIR FIX UM143 (AWY-HI) 34,000 ft / 10,363 m 39.94690˚ -2.50395˚ 57 nm 186 nm 356° / 356° -
CJN VOR UM143 (AWY-HI) 34,000 ft / 10,363 m 40.37196˚ -2.54461˚ 25 nm 212 nm 356° / 356° CASTEJON VOR-DME
PINAR FIX UN10 (AWY-HI) 34,000 ft / 10,363 m 40.98029˚ -2.59917˚ 36 nm 248 nm 356° / 356° -
BAN VOR UN10 (AWY-HI) 28,600 ft / 8,717 m 41.32356˚ -2.62979˚ 20 nm 269 nm 356° / 356° BARAHONA VOR-DME
GASMO FIX - 22,000 ft / 6,706 m 41.72948˚ -3.04875˚ 30 nm 300 nm 322° / 322° -
O LEXJ APT - 0 ft / 0 m 43.42719˚ -3.82047˚ 107 nm 407 nm 342° / 341° Santander

Altitude Profile

Advertisement - Login to hide

Weather


0- 5 10 15 20 25 30 35+ Temperature / ° C

Clouds and Precipitation
Forecast for 2017-12-12 18:00 UTC. Updated 31 minutes ago

Ground ~20,000 ft ~40,000 ft Winds

LEAM

Details ICAO LEAM (LEI)
Name Almeria
Region Spain
Timezone Unknown (UTC+0.0)
Stats Elevation 70 ft / 21 m (AMSL)
Location 36.843935° -2.370097°
Runways 1
Magnetic Variation 0.288° W

METAR

LEAM 121730Z VRB01KT 9999 FEW030 12/07 Q1019

Decode

TAF

TAF LEAM 121400Z 1215/1315 14005KT CAVOK TX16/1215Z TN09/1304Z= TAF LEAS 121400Z 1215/1315 23008KT 9999 SCT060 TX14/1314Z TN06/1301Z TEMPO 1300/1315 23015G28KT

Decode

Departure Runways

ID Width Length Bearing (true) Bearing (mag) Surface Threshold Offset Overrun Length
08 148 ft / 45 m 10,484 ft / 3,196 m 72.94° 73.23° Asphalt 492 ft / 150 m 191 ft / 58 m
26 148 ft / 45 m 10,484 ft / 3,196 m 252.96° 253.25° Asphalt 0 ft / 0 m 150 ft / 46 m

LEXJ

Details ICAO LEXJ (SDR)
Name Santander
Region Spain
Timezone Europe/Madrid (UTC+1.0)
Stats Elevation 16 ft / 5 m (AMSL)
Location 43.427188° -3.820470°
Runways 1
Magnetic Variation 0.914° W

METAR

LEXJ 121730Z 21006KT 9999 SCT035 SCT060 10/06 Q1020

Decode

TAF

TAF LEXJ 121400Z 1215/1315 20006KT 9999 SCT030 TX14/1314Z TN06/1305Z TEMPO 1215/1218 14010KT PROB40 TEMPO 1308/1315 22015G25KT

Decode

Destination Runways

ID Width Length Bearing (true) Bearing (mag) Surface Threshold Offset Overrun Length
11 148 ft / 45 m 7,597 ft / 2,316 m 110.20° 111.11° Asphalt 0 ft / 0 m 98 ft / 30 m
29 148 ft / 45 m 7,597 ft / 2,316 m 290.22° 291.13° Asphalt 0 ft / 0 m 0 ft / 0 m

Approach Navaids

Runway Type Ident Frequency Range Bearing (true) Bearing (mag) Slope Elevation
29 Localiser STA 110.90 MHz 18 nm / 33 km 290.19° 291.10° - 16 ft / 5 m (AMSL)
29 Glidescope STA 110.90 MHz 10 nm / 19 km 290.21° 291.12° 3.00° 16 ft / 5 m (AMSL)
29 DME STA 110.90 MHz 18 nm / 33 km - - - 26 ft / 8 m (AMSL)

Popular Alternatives